sensor_id;sensor_type;location;lat;lon;timestamp;temperature;humidity
19952;DHT22;10137;49.406;19.484;2022-11-20T00:01:27;-2.50;99.90
19952;DHT22;10137;49.406;19.484;2022-11-20T00:03:55;-2.50;99.90
19952;DHT22;10137;49.406;19.484;2022-11-20T00:06:23;-2.50;99.90
19952;DHT22;10137;49.406;19.484;2022-11-20T00:08:54;-2.50;99.90
19952;DHT22;10137;49.406;19.484;2022-11-20T00:11:23;-2.50;99.90
19952;DHT22;10137;49.406;19.484;2022-11-20T00:13:52;-2.60;99.90
19952;DHT22;10137;49.406;19.484;2022-11-20T00:16:22;-2.50;99.90
19952;DHT22;10137;49.406;19.484;2022-11-20T00:18:49;-2.50;99.90
19952;DHT22;10137;49.406;19.484;2022-11-20T00:21:18;-2.50;99.90
19952;DHT22;10137;49.406;19.484;2022-11-20T00:23:45;-2.50;99.90
19952;DHT22;10137;49.406;19.484;2022-11-20T00:26:15;-2.50;99.90
19952;DHT22;10137;49.406;19.484;2022-11-20T00:28:44;-2.50;99.90
19952;DHT22;10137;49.406;19.484;2022-11-20T00:31:12;-2.50;99.90
19952;DHT22;10137;49.406;19.484;2022-11-20T00:33:40;-2.50;99.90
19952;DHT22;10137;49.406;19.484;2022-11-20T00:36:09;-2.50;99.90
19952;DHT22;10137;49.406;19.484;2022-11-20T00:38:37;-2.40;99.90
19952;DHT22;10137;49.406;19.484;2022-11-20T00:41:06;-2.40;99.90
19952;DHT22;10137;49.406;19.484;2022-11-20T00:43:36;-2.40;99.90
19952;DHT22;10137;49.406;19.484;2022-11-20T00:46:04;-2.40;99.90
19952;DHT22;10137;49.406;19.484;2022-11-20T00:48:32;-2.40;99.90
19952;DHT22;10137;49.406;19.484;2022-11-20T00:50:59;-2.40;99.90
19952;DHT22;10137;49.406;19.484;2022-11-20T00:53:27;-2.40;99.90
19952;DHT22;10137;49.406;19.484;2022-11-20T00:55:55;-2.40;99.90
19952;DHT22;10137;49.406;19.484;2022-11-20T00:58:22;-2.40;99.90
19952;DHT22;10137;49.406;19.484;2022-11-20T01:00:51;-2.50;99.90
19952;DHT22;10137;49.406;19.484;2022-11-20T01:03:18;-2.50;99.90
19952;DHT22;10137;49.406;19.484;2022-11-20T01:05:45;-2.50;99.90
19952;DHT22;10137;49.406;19.484;2022-11-20T01:08:12;-2.50;99.90
19952;DHT22;10137;49.406;19.484;2022-11-20T01:10:39;-2.50;99.90
19952;DHT22;10137;49.406;19.484;2022-11-20T01:13:06;-2.50;99.90
19952;DHT22;10137;49.406;19.484;2022-11-20T01:15:52;-2.50;99.90
19952;DHT22;10137;49.406;19.484;2022-11-20T01:18:19;-2.40;99.90
19952;DHT22;10137;49.406;19.484;2022-11-20T01:20:46;-2.40;99.90
19952;DHT22;10137;49.406;19.484;2022-11-20T01:23:12;-2.40;99.90
19952;DHT22;10137;49.406;19.484;2022-11-20T01:25:39;-2.40;99.90
19952;DHT22;10137;49.406;19.484;2022-11-20T01:28:06;-2.40;99.90
19952;DHT22;10137;49.406;19.484;2022-11-20T01:30:33;-2.40;99.90
19952;DHT22;10137;49.406;19.484;2022-11-20T01:33:02;-2.40;99.90
19952;DHT22;10137;49.406;19.484;2022-11-20T01:35:29;-2.40;99.90
19952;DHT22;10137;49.406;19.484;2022-11-20T01:37:55;-2.40;99.90
19952;DHT22;10137;49.406;19.484;2022-11-20T01:40:23;-2.40;99.90
19952;DHT22;10137;49.406;19.484;2022-11-20T01:42:59;-2.30;99.90
19952;DHT22;10137;49.406;19.484;2022-11-20T01:46:04;-2.30;99.90
19952;DHT22;10137;49.406;19.484;2022-11-20T01:48:37;-2.30;99.90
19952;DHT22;10137;49.406;19.484;2022-11-20T01:51:07;-2.30;99.90
19952;DHT22;10137;49.406;19.484;2022-11-20T01:53:39;-2.20;99.90
19952;DHT22;10137;49.406;19.484;2022-11-20T01:56:09;-2.20;99.90
19952;DHT22;10137;49.406;19.484;2022-11-20T01:58:42;-2.20;99.90
19952;DHT22;10137;49.406;19.484;2022-11-20T02:01:11;-2.20;99.90
19952;DHT22;10137;49.406;19.484;2022-11-20T02:03:41;-2.20;99.90
19952;DHT22;10137;49.406;19.484;2022-11-20T02:06:19;-2.20;99.90
19952;DHT22;10137;49.406;19.484;2022-11-20T02:08:48;-2.20;99.90
19952;DHT22;10137;49.406;19.484;2022-11-20T02:11:15;-2.10;99.90
19952;DHT22;10137;49.406;19.484;2022-11-20T02:13:42;-2.10;99.90
19952;DHT22;10137;49.406;19.484;2022-11-20T02:16:22;-2.20;99.90
19952;DHT22;10137;49.406;19.484;2022-11-20T02:18:52;-2.10;99.90
19952;DHT22;10137;49.406;19.484;2022-11-20T02:21:28;-2.10;99.90
19952;DHT22;10137;49.406;19.484;2022-11-20T02:24:07;-2.10;99.90
19952;DHT22;10137;49.406;19.484;2022-11-20T02:26:40;-2.10;99.90
19952;DHT22;10137;49.406;19.484;2022-11-20T02:29:07;-2.10;99.90
19952;DHT22;10137;49.406;19.484;2022-11-20T02:31:40;-2.10;99.90
19952;DHT22;10137;49.406;19.484;2022-11-20T02:34:08;-2.00;99.90
19952;DHT22;10137;49.406;19.484;2022-11-20T02:36:35;-2.00;99.90
19952;DHT22;10137;49.406;19.484;2022-11-20T02:39:05;-2.00;99.90
19952;DHT22;10137;49.406;19.484;2022-11-20T02:41:33;-2.00;99.90
19952;DHT22;10137;49.406;19.484;2022-11-20T02:44:01;-2.00;99.90
19952;DHT22;10137;49.406;19.484;2022-11-20T02:46:29;-2.00;99.90
19952;DHT22;10137;49.406;19.484;2022-11-20T02:48:56;-2.00;99.90
19952;DHT22;10137;49.406;19.484;2022-11-20T02:51:24;-2.00;99.90
19952;DHT22;10137;49.406;19.484;2022-11-20T02:53:51;-2.10;99.90
19952;DHT22;10137;49.406;19.484;2022-11-20T02:56:20;-2.00;99.90
19952;DHT22;10137;49.406;19.484;2022-11-20T02:58:47;-2.00;99.90
19952;DHT22;10137;49.406;19.484;2022-11-20T03:01:14;-2.00;99.90
19952;DHT22;10137;49.406;19.484;2022-11-20T03:03:41;-2.00;99.90
19952;DHT22;10137;49.406;19.484;2022-11-20T03:06:08;-2.10;99.90
19952;DHT22;10137;49.406;19.484;2022-11-20T03:08:35;-2.00;99.90
19952;DHT22;10137;49.406;19.484;2022-11-20T03:11:03;-2.00;99.90
19952;DHT22;10137;49.406;19.484;2022-11-20T03:13:32;-2.00;99.90
19952;DHT22;10137;49.406;19.484;2022-11-20T03:16:08;-2.00;99.90
19952;DHT22;10137;49.406;19.484;2022-11-20T03:18:36;-2.00;99.90
19952;DHT22;10137;49.406;19.484;2022-11-20T03:21:03;-2.00;99.90
19952;DHT22;10137;49.406;19.484;2022-11-20T03:23:34;-2.10;99.90
19952;DHT22;10137;49.406;19.484;2022-11-20T03:26:12;-2.00;99.90
19952;DHT22;10137;49.406;19.484;2022-11-20T03:28:41;-2.00;99.90
19952;DHT22;10137;49.406;19.484;2022-11-20T03:31:10;-2.00;99.90
19952;DHT22;10137;49.406;19.484;2022-11-20T03:33:38;-2.10;99.90
19952;DHT22;10137;49.406;19.484;2022-11-20T03:36:07;-2.00;99.90
19952;DHT22;10137;49.406;19.484;2022-11-20T03:38:34;-1.90;99.90
19952;DHT22;10137;49.406;19.484;2022-11-20T03:41:02;-2.00;99.90
19952;DHT22;10137;49.406;19.484;2022-11-20T03:43:30;-2.00;99.90
19952;DHT22;10137;49.406;19.484;2022-11-20T03:45:58;-2.00;99.90
19952;DHT22;10137;49.406;19.484;2022-11-20T03:48:26;-2.00;99.90
19952;DHT22;10137;49.406;19.484;2022-11-20T03:50:53;-2.00;99.90
19952;DHT22;10137;49.406;19.484;2022-11-20T03:53:20;-1.90;99.90
19952;DHT22;10137;49.406;19.484;2022-11-20T03:55:51;-1.90;99.90
19952;DHT22;10137;49.406;19.484;2022-11-20T03:58:17;-1.90;99.90
19952;DHT22;10137;49.406;19.484;2022-11-20T04:00:45;-2.00;99.90
19952;DHT22;10137;49.406;19.484;2022-11-20T04:03:13;-1.90;99.90
19952;DHT22;10137;49.406;19.484;2022-11-20T04:05:40;-1.90;99.90
19952;DHT22;10137;49.406;19.484;2022-11-20T04:08:07;-1.90;99.90
19952;DHT22;10137;49.406;19.484;2022-11-20T04:10:34;-1.90;99.90
19952;DHT22;10137;49.406;19.484;2022-11-20T04:13:01;-1.90;99.90
19952;DHT22;10137;49.406;19.484;2022-11-20T04:15:28;-1.90;99.90
19952;DHT22;10137;49.406;19.484;2022-11-20T04:17:55;-1.90;99.90
19952;DHT22;10137;49.406;19.484;2022-11-20T04:20:24;-1.90;99.90
19952;DHT22;10137;49.406;19.484;2022-11-20T04:22:53;-1.90;99.90
19952;DHT22;10137;49.406;19.484;2022-11-20T04:25:20;-1.90;99.90
19952;DHT22;10137;49.406;19.484;2022-11-20T04:27:47;-1.90;99.90
19952;DHT22;10137;49.406;19.484;2022-11-20T04:30:14;-1.80;99.90
19952;DHT22;10137;49.406;19.484;2022-11-20T04:32:41;-1.90;99.90
19952;DHT22;10137;49.406;19.484;2022-11-20T04:35:08;-1.90;99.90
19952;DHT22;10137;49.406;19.484;2022-11-20T04:37:37;-1.90;99.90
19952;DHT22;10137;49.406;19.484;2022-11-20T04:40:05;-1.90;99.90
19952;DHT22;10137;49.406;19.484;2022-11-20T04:42:32;-1.90;99.90
19952;DHT22;10137;49.406;19.484;2022-11-20T04:44:59;-1.90;99.90
19952;DHT22;10137;49.406;19.484;2022-11-20T04:47:26;-1.90;99.90
19952;DHT22;10137;49.406;19.484;2022-11-20T04:49:53;-1.90;99.90
19952;DHT22;10137;49.406;19.484;2022-11-20T04:52:20;-1.90;99.90
19952;DHT22;10137;49.406;19.484;2022-11-20T04:54:48;-1.80;99.90
19952;DHT22;10137;49.406;19.484;2022-11-20T04:57:18;-1.80;99.90
19952;DHT22;10137;49.406;19.484;2022-11-20T04:59:45;-1.80;99.90
19952;DHT22;10137;49.406;19.484;2022-11-20T05:02:12;-1.80;99.90
19952;DHT22;10137;49.406;19.484;2022-11-20T05:04:39;-1.80;99.90
19952;DHT22;10137;49.406;19.484;2022-11-20T05:07:06;-1.80;99.90
19952;DHT22;10137;49.406;19.484;2022-11-20T05:09:33;-1.70;99.90
19952;DHT22;10137;49.406;19.484;2022-11-20T05:12:02;-1.80;99.90
19952;DHT22;10137;49.406;19.484;2022-11-20T05:14:29;-1.80;99.90
19952;DHT22;10137;49.406;19.484;2022-11-20T05:16:56;-1.80;99.90
19952;DHT22;10137;49.406;19.484;2022-11-20T05:19:23;-1.90;99.90
19952;DHT22;10137;49.406;19.484;2022-11-20T05:21:50;-1.80;99.90
19952;DHT22;10137;49.406;19.484;2022-11-20T05:24:17;-1.80;99.90
19952;DHT22;10137;49.406;19.484;2022-11-20T05:26:44;-1.80;99.90
19952;DHT22;10137;49.406;19.484;2022-11-20T05:29:12;-1.80;99.90
19952;DHT22;10137;49.406;19.484;2022-11-20T05:31:40;-1.80;99.90
19952;DHT22;10137;49.406;19.484;2022-11-20T05:34:07;-1.80;99.90
19952;DHT22;10137;49.406;19.484;2022-11-20T05:36:34;-1.80;99.90
19952;DHT22;10137;49.406;19.484;2022-11-20T05:39:02;-1.80;99.90
19952;DHT22;10137;49.406;19.484;2022-11-20T05:41:29;-1.70;99.90
19952;DHT22;10137;49.406;19.484;2022-11-20T05:43:56;-1.70;99.90
19952;DHT22;10137;49.406;19.484;2022-11-20T05:46:25;-1.70;99.90
19952;DHT22;10137;49.406;19.484;2022-11-20T05:48:52;-1.60;99.90
19952;DHT22;10137;49.406;19.484;2022-11-20T05:51:20;-1.70;99.90
19952;DHT22;10137;49.406;19.484;2022-11-20T05:53:47;-1.70;99.90
19952;DHT22;10137;49.406;19.484;2022-11-20T05:56:16;-1.60;99.90
19952;DHT22;10137;49.406;19.484;2022-11-20T05:58:43;-1.60;99.90
19952;DHT22;10137;49.406;19.484;2022-11-20T06:01:13;-1.60;99.90
19952;DHT22;10137;49.406;19.484;2022-11-20T06:03:42;-1.50;99.90
19952;DHT22;10137;49.406;19.484;2022-11-20T06:06:11;-1.50;99.90
19952;DHT22;10137;49.406;19.484;2022-11-20T06:08:38;-1.50;99.90
19952;DHT22;10137;49.406;19.484;2022-11-20T06:11:07;-1.50;99.90
19952;DHT22;10137;49.406;19.484;2022-11-20T06:13:35;-1.50;99.90
19952;DHT22;10137;49.406;19.484;2022-11-20T06:16:05;-1.50;99.90
19952;DHT22;10137;49.406;19.484;2022-11-20T06:18:32;-1.40;99.90
19952;DHT22;10137;49.406;19.484;2022-11-20T06:21:02;-1.40;99.90
19952;DHT22;10137;49.406;19.484;2022-11-20T06:23:30;-1.40;99.90
19952;DHT22;10137;49.406;19.484;2022-11-20T06:25:58;-1.40;99.90
19952;DHT22;10137;49.406;19.484;2022-11-20T06:28:27;-1.40;99.90
19952;DHT22;10137;49.406;19.484;2022-11-20T06:30:54;-1.40;99.90
19952;DHT22;10137;49.406;19.484;2022-11-20T06:33:21;-1.50;99.90
19952;DHT22;10137;49.406;19.484;2022-11-20T06:35:48;-1.40;99.90
19952;DHT22;10137;49.406;19.484;2022-11-20T06:38:16;-1.50;99.90
19952;DHT22;10137;49.406;19.484;2022-11-20T06:40:43;-1.50;99.90
19952;DHT22;10137;49.406;19.484;2022-11-20T06:43:10;-1.50;99.90
19952;DHT22;10137;49.406;19.484;2022-11-20T06:45:37;-1.50;99.90
19952;DHT22;10137;49.406;19.484;2022-11-20T06:48:05;-1.40;99.90
19952;DHT22;10137;49.406;19.484;2022-11-20T06:50:32;-1.50;99.90
19952;DHT22;10137;49.406;19.484;2022-11-20T06:53:01;-1.50;99.90
19952;DHT22;10137;49.406;19.484;2022-11-20T06:55:29;-1.40;99.90
19952;DHT22;10137;49.406;19.484;2022-11-20T06:57:56;-1.40;99.90
19952;DHT22;10137;49.406;19.484;2022-11-20T07:00:24;-1.50;99.90
19952;DHT22;10137;49.406;19.484;2022-11-20T07:02:51;-1.40;99.90
19952;DHT22;10137;49.406;19.484;2022-11-20T07:05:18;-1.40;99.90
19952;DHT22;10137;49.406;19.484;2022-11-20T07:07:45;-1.40;99.90
19952;DHT22;10137;49.406;19.484;2022-11-20T07:10:12;-1.40;99.90
19952;DHT22;10137;49.406;19.484;2022-11-20T07:12:41;-1.40;99.90
19952;DHT22;10137;49.406;19.484;2022-11-20T07:15:08;-1.40;99.90
19952;DHT22;10137;49.406;19.484;2022-11-20T07:17:35;-1.40;99.90
19952;DHT22;10137;49.406;19.484;2022-11-20T07:20:02;-1.40;99.90
19952;DHT22;10137;49.406;19.484;2022-11-20T07:22:29;-1.30;99.90
19952;DHT22;10137;49.406;19.484;2022-11-20T07:24:56;-1.30;99.90
19952;DHT22;10137;49.406;19.484;2022-11-20T07:27:23;-1.20;99.90
19952;DHT22;10137;49.406;19.484;2022-11-20T07:29:52;-1.20;99.90
19952;DHT22;10137;49.406;19.484;2022-11-20T07:32:19;-1.10;99.90
19952;DHT22;10137;49.406;19.484;2022-11-20T07:34:45;-1.10;99.90
19952;DHT22;10137;49.406;19.484;2022-11-20T07:37:13;-1.10;99.90
19952;DHT22;10137;49.406;19.484;2022-11-20T07:39:40;-1.00;99.90
19952;DHT22;10137;49.406;19.484;2022-11-20T07:42:07;-0.90;99.90
19952;DHT22;10137;49.406;19.484;2022-11-20T07:44:35;-0.90;99.90
19952;DHT22;10137;49.406;19.484;2022-11-20T07:47:03;-0.90;99.90
19952;DHT22;10137;49.406;19.484;2022-11-20T07:49:30;-0.90;99.90
19952;DHT22;10137;49.406;19.484;2022-11-20T07:51:57;-0.90;99.90
19952;DHT22;10137;49.406;19.484;2022-11-20T07:54:24;-0.80;99.90
19952;DHT22;10137;49.406;19.484;2022-11-20T07:56:52;-0.70;99.90
19952;DHT22;10137;49.406;19.484;2022-11-20T07:59:19;-0.50;99.90
19952;DHT22;10137;49.406;19.484;2022-11-20T08:01:45;-0.40;99.90
19952;DHT22;10137;49.406;19.484;2022-11-20T08:04:14;-0.30;99.90
19952;DHT22;10137;49.406;19.484;2022-11-20T08:06:41;0.00;99.90
19952;DHT22;10137;49.406;19.484;2022-11-20T08:09:08;0.30;99.90
19952;DHT22;10137;49.406;19.484;2022-11-20T08:11:36;0.60;99.90
19952;DHT22;10137;49.406;19.484;2022-11-20T08:14:20;0.70;99.90
19952;DHT22;10137;49.406;19.484;2022-11-20T08:16:48;0.90;99.90
19952;DHT22;10137;49.406;19.484;2022-11-20T08:19:18;1.10;99.90
19952;DHT22;10137;49.406;19.484;2022-11-20T08:21:45;1.20;99.90
19952;DHT22;10137;49.406;19.484;2022-11-20T08:24:12;1.20;99.90
19952;DHT22;10137;49.406;19.484;2022-11-20T08:26:40;1.10;99.90
19952;DHT22;10137;49.406;19.484;2022-11-20T08:29:07;1.10;99.90
19952;DHT22;10137;49.406;19.484;2022-11-20T08:31:34;1.00;99.90
19952;DHT22;10137;49.406;19.484;2022-11-20T08:34:01;1.00;99.90
19952;DHT22;10137;49.406;19.484;2022-11-20T08:36:32;1.00;99.90
19952;DHT22;10137;49.406;19.484;2022-11-20T08:38:59;0.90;99.90
19952;DHT22;10137;49.406;19.484;2022-11-20T08:41:26;0.90;99.90
19952;DHT22;10137;49.406;19.484;2022-11-20T08:43:56;0.90;99.90
19952;DHT22;10137;49.406;19.484;2022-11-20T08:46:24;0.90;99.90
19952;DHT22;10137;49.406;19.484;2022-11-20T08:48:51;0.90;99.90
19952;DHT22;10137;49.406;19.484;2022-11-20T08:51:19;1.10;99.90
19952;DHT22;10137;49.406;19.484;2022-11-20T08:53:48;1.20;99.90
19952;DHT22;10137;49.406;19.484;2022-11-20T08:56:15;1.20;99.90
19952;DHT22;10137;49.406;19.484;2022-11-20T08:58:42;1.20;99.90
19952;DHT22;10137;49.406;19.484;2022-11-20T09:01:10;1.50;99.90
19952;DHT22;10137;49.406;19.484;2022-11-20T09:03:37;1.90;99.90
19952;DHT22;10137;49.406;19.484;2022-11-20T09:06:06;2.10;99.90
19952;DHT22;10137;49.406;19.484;2022-11-20T09:08:33;2.20;99.90
19952;DHT22;10137;49.406;19.484;2022-11-20T09:11:03;2.30;99.90
19952;DHT22;10137;49.406;19.484;2022-11-20T09:13:31;2.50;99.90
19952;DHT22;10137;49.406;19.484;2022-11-20T09:15:59;2.60;99.90
19952;DHT22;10137;49.406;19.484;2022-11-20T09:18:27;2.60;99.90
19952;DHT22;10137;49.406;19.484;2022-11-20T09:20:56;2.70;99.90
19952;DHT22;10137;49.406;19.484;2022-11-20T09:23:24;2.60;99.90
19952;DHT22;10137;49.406;19.484;2022-11-20T09:25:51;2.50;99.90
19952;DHT22;10137;49.406;19.484;2022-11-20T09:28:22;2.50;99.90
19952;DHT22;10137;49.406;19.484;2022-11-20T09:30:49;2.50;99.90
19952;DHT22;10137;49.406;19.484;2022-11-20T09:33:16;2.60;99.90
19952;DHT22;10137;49.406;19.484;2022-11-20T09:35:43;2.60;99.90
19952;DHT22;10137;49.406;19.484;2022-11-20T09:38:11;2.50;99.90
19952;DHT22;10137;49.406;19.484;2022-11-20T09:40:45;2.60;99.90
19952;DHT22;10137;49.406;19.484;2022-11-20T09:43:15;2.80;99.90
19952;DHT22;10137;49.406;19.484;2022-11-20T09:45:59;2.80;99.90
19952;DHT22;10137;49.406;19.484;2022-11-20T09:48:40;2.60;99.90
19952;DHT22;10137;49.406;19.484;2022-11-20T09:51:20;2.40;99.90
19952;DHT22;10137;49.406;19.484;2022-11-20T09:53:59;2.30;99.90
19952;DHT22;10137;49.406;19.484;2022-11-20T09:56:29;2.30;99.90
19952;DHT22;10137;49.406;19.484;2022-11-20T09:59:02;2.20;99.90
19952;DHT22;10137;49.406;19.484;2022-11-20T10:01:35;2.20;99.90
19952;DHT22;10137;49.406;19.484;2022-11-20T10:04:06;2.20;99.90
19952;DHT22;10137;49.406;19.484;2022-11-20T10:06:41;2.20;99.90
19952;DHT22;10137;49.406;19.484;2022-11-20T10:09:21;2.10;99.90
19952;DHT22;10137;49.406;19.484;2022-11-20T10:11:58;2.10;99.90
19952;DHT22;10137;49.406;19.484;2022-11-20T10:14:37;2.00;99.90
19952;DHT22;10137;49.406;19.484;2022-11-20T10:17:17;2.00;99.90
19952;DHT22;10137;49.406;19.484;2022-11-20T10:19:55;2.10;99.90
19952;DHT22;10137;49.406;19.484;2022-11-20T10:22:37;2.20;99.90
19952;DHT22;10137;49.406;19.484;2022-11-20T10:25:14;2.20;99.90
19952;DHT22;10137;49.406;19.484;2022-11-20T10:27:54;2.30;99.90
19952;DHT22;10137;49.406;19.484;2022-11-20T10:30:23;2.30;99.90
19952;DHT22;10137;49.406;19.484;2022-11-20T10:32:54;2.20;99.90
19952;DHT22;10137;49.406;19.484;2022-11-20T10:35:27;2.20;99.90
19952;DHT22;10137;49.406;19.484;2022-11-20T10:37:57;2.20;99.90
19952;DHT22;10137;49.406;19.484;2022-11-20T10:40:30;2.30;99.90
19952;DHT22;10137;49.406;19.484;2022-11-20T10:43:02;2.30;99.90
19952;DHT22;10137;49.406;19.484;2022-11-20T10:48:23;2.30;99.90
19952;DHT22;10137;49.406;19.484;2022-11-20T10:51:11;2.30;99.90
19952;DHT22;10137;49.406;19.484;2022-11-20T10:53:56;2.40;99.90
19952;DHT22;10137;49.406;19.484;2022-11-20T10:56:31;2.50;99.90
19952;DHT22;10137;49.406;19.484;2022-11-20T10:59:25;2.60;99.90
19952;DHT22;10137;49.406;19.484;2022-11-20T11:01:54;2.60;99.90
19952;DHT22;10137;49.406;19.484;2022-11-20T11:04:33;2.60;99.90
19952;DHT22;10137;49.406;19.484;2022-11-20T11:07:08;2.40;99.90
19952;DHT22;10137;49.406;19.484;2022-11-20T11:09:41;2.40;99.90
19952;DHT22;10137;49.406;19.484;2022-11-20T11:12:11;2.60;99.90
19952;DHT22;10137;49.406;19.484;2022-11-20T11:14:47;2.60;99.90
19952;DHT22;10137;49.406;19.484;2022-11-20T11:17:22;2.70;99.90
19952;DHT22;10137;49.406;19.484;2022-11-20T11:20:11;2.60;99.90
19952;DHT22;10137;49.406;19.484;2022-11-20T11:22:44;2.50;99.90
19952;DHT22;10137;49.406;19.484;2022-11-20T11:25:27;2.50;99.90
19952;DHT22;10137;49.406;19.484;2022-11-20T11:27:56;2.50;99.90
19952;DHT22;10137;49.406;19.484;2022-11-20T11:30:25;2.50;99.90
19952;DHT22;10137;49.406;19.484;2022-11-20T11:33:04;2.60;99.90
19952;DHT22;10137;49.406;19.484;2022-11-20T11:35:38;2.60;99.90
19952;DHT22;10137;49.406;19.484;2022-11-20T11:38:14;2.60;99.90
19952;DHT22;10137;49.406;19.484;2022-11-20T11:40:44;2.60;99.90
19952;DHT22;10137;49.406;19.484;2022-11-20T11:43:23;2.70;99.90
19952;DHT22;10137;49.406;19.484;2022-11-20T11:46:30;2.70;99.90
19952;DHT22;10137;49.406;19.484;2022-11-20T11:49:08;2.70;99.90
19952;DHT22;10137;49.406;19.484;2022-11-20T11:51:50;2.90;99.90
19952;DHT22;10137;49.406;19.484;2022-11-20T11:54:24;2.90;99.90
19952;DHT22;10137;49.406;19.484;2022-11-20T11:56:53;2.90;99.90
19952;DHT22;10137;49.406;19.484;2022-11-20T11:59:26;2.90;99.90
19952;DHT22;10137;49.406;19.484;2022-11-20T12:01:59;2.80;99.90
19952;DHT22;10137;49.406;19.484;2022-11-20T12:04:40;2.80;99.90
19952;DHT22;10137;49.406;19.484;2022-11-20T12:07:19;2.80;99.90
19952;DHT22;10137;49.406;19.484;2022-11-20T12:09:52;2.80;99.90
19952;DHT22;10137;49.406;19.484;2022-11-20T12:12:23;2.80;99.90
19952;DHT22;10137;49.406;19.484;2022-11-20T12:14:53;2.80;99.90
19952;DHT22;10137;49.406;19.484;2022-11-20T12:17:22;2.80;99.90
19952;DHT22;10137;49.406;19.484;2022-11-20T12:19:52;2.80;99.90
19952;DHT22;10137;49.406;19.484;2022-11-20T12:22:29;2.80;99.90
19952;DHT22;10137;49.406;19.484;2022-11-20T12:25:08;2.70;99.90
19952;DHT22;10137;49.406;19.484;2022-11-20T12:28:33;2.60;99.90
19952;DHT22;10137;49.406;19.484;2022-11-20T12:31:17;2.50;99.90
19952;DHT22;10137;49.406;19.484;2022-11-20T12:34:09;2.50;99.90
19952;DHT22;10137;49.406;19.484;2022-11-20T12:36:45;2.40;99.90
19952;DHT22;10137;49.406;19.484;2022-11-20T12:39:38;2.40;99.90
19952;DHT22;10137;49.406;19.484;2022-11-20T12:45:46;2.40;99.90
19952;DHT22;10137;49.406;19.484;2022-11-20T12:48:42;2.40;99.90
19952;DHT22;10137;49.406;19.484;2022-11-20T12:54:26;2.40;99.90
19952;DHT22;10137;49.406;19.484;2022-11-20T12:57:03;2.30;99.90
19952;DHT22;10137;49.406;19.484;2022-11-20T12:59:47;2.20;99.90
19952;DHT22;10137;49.406;19.484;2022-11-20T13:02:25;2.20;99.90
19952;DHT22;10137;49.406;19.484;2022-11-20T13:05:19;2.30;99.90
19952;DHT22;10137;49.406;19.484;2022-11-20T13:07:51;2.30;99.90
19952;DHT22;10137;49.406;19.484;2022-11-20T13:10:23;2.20;99.90
19952;DHT22;10137;49.406;19.484;2022-11-20T13:12:59;2.30;99.90
19952;DHT22;10137;49.406;19.484;2022-11-20T13:15:36;2.30;99.90
19952;DHT22;10137;49.406;19.484;2022-11-20T13:18:08;2.30;99.90
19952;DHT22;10137;49.406;19.484;2022-11-20T13:20:41;2.20;99.90
19952;DHT22;10137;49.406;19.484;2022-11-20T13:23:08;2.20;99.90
19952;DHT22;10137;49.406;19.484;2022-11-20T13:25:37;2.30;99.90
19952;DHT22;10137;49.406;19.484;2022-11-20T13:28:27;2.30;99.90
19952;DHT22;10137;49.406;19.484;2022-11-20T13:30:56;2.40;99.90
19952;DHT22;10137;49.406;19.484;2022-11-20T13:33:28;2.40;99.90
19952;DHT22;10137;49.406;19.484;2022-11-20T13:35:57;2.40;99.90
19952;DHT22;10137;49.406;19.484;2022-11-20T13:38:24;2.30;99.90
19952;DHT22;10137;49.406;19.484;2022-11-20T13:40:53;2.40;99.90
19952;DHT22;10137;49.406;19.484;2022-11-20T13:43:34;2.30;99.90
19952;DHT22;10137;49.406;19.484;2022-11-20T13:46:03;2.30;99.90
19952;DHT22;10137;49.406;19.484;2022-11-20T13:48:33;2.30;99.90
19952;DHT22;10137;49.406;19.484;2022-11-20T13:51:30;2.40;99.90
19952;DHT22;10137;49.406;19.484;2022-11-20T13:54:26;2.40;99.90
19952;DHT22;10137;49.406;19.484;2022-11-20T13:57:10;2.40;99.90
19952;DHT22;10137;49.406;19.484;2022-11-20T13:59:49;2.40;99.90
19952;DHT22;10137;49.406;19.484;2022-11-20T14:02:21;2.50;99.90
19952;DHT22;10137;49.406;19.484;2022-11-20T14:04:52;2.50;99.90
19952;DHT22;10137;49.406;19.484;2022-11-20T14:07:21;2.50;99.90
19952;DHT22;10137;49.406;19.484;2022-11-20T14:09:53;2.40;99.90
19952;DHT22;10137;49.406;19.484;2022-11-20T14:12:27;2.40;99.90
19952;DHT22;10137;49.406;19.484;2022-11-20T14:14:58;2.40;99.90
19952;DHT22;10137;49.406;19.484;2022-11-20T14:17:31;2.40;99.90
19952;DHT22;10137;49.406;19.484;2022-11-20T14:20:05;2.50;99.90
19952;DHT22;10137;49.406;19.484;2022-11-20T14:22:33;2.40;99.90
19952;DHT22;10137;49.406;19.484;2022-11-20T14:25:06;2.50;99.90
19952;DHT22;10137;49.406;19.484;2022-11-20T14:27:35;2.50;99.90
19952;DHT22;10137;49.406;19.484;2022-11-20T14:30:13;2.40;99.90
19952;DHT22;10137;49.406;19.484;2022-11-20T14:32:44;2.40;99.90
19952;DHT22;10137;49.406;19.484;2022-11-20T14:35:23;2.40;99.90
19952;DHT22;10137;49.406;19.484;2022-11-20T14:37:51;2.30;99.90
19952;DHT22;10137;49.406;19.484;2022-11-20T14:40:24;2.30;99.90
19952;DHT22;10137;49.406;19.484;2022-11-20T14:42:51;2.30;99.90
19952;DHT22;10137;49.406;19.484;2022-11-20T14:45:20;2.30;99.90
19952;DHT22;10137;49.406;19.484;2022-11-20T14:47:48;2.30;99.90
19952;DHT22;10137;49.406;19.484;2022-11-20T14:50:19;2.20;99.90
19952;DHT22;10137;49.406;19.484;2022-11-20T14:52:51;2.20;99.90
19952;DHT22;10137;49.406;19.484;2022-11-20T14:55:29;2.20;99.90
19952;DHT22;10137;49.406;19.484;2022-11-20T14:58:00;2.20;99.90
19952;DHT22;10137;49.406;19.484;2022-11-20T15:00:32;2.20;99.90
19952;DHT22;10137;49.406;19.484;2022-11-20T15:02:59;2.20;99.90
19952;DHT22;10137;49.406;19.484;2022-11-20T15:05:45;2.20;99.90
19952;DHT22;10137;49.406;19.484;2022-11-20T15:08:14;2.20;99.90
19952;DHT22;10137;49.406;19.484;2022-11-20T15:10:46;2.20;99.90
19952;DHT22;10137;49.406;19.484;2022-11-20T15:13:16;2.10;99.90
19952;DHT22;10137;49.406;19.484;2022-11-20T15:15:47;2.10;99.90
19952;DHT22;10137;49.406;19.484;2022-11-20T15:18:17;2.20;99.90
19952;DHT22;10137;49.406;19.484;2022-11-20T15:20:46;2.20;99.90
19952;DHT22;10137;49.406;19.484;2022-11-20T15:23:15;2.20;99.90
19952;DHT22;10137;49.406;19.484;2022-11-20T15:25:44;2.10;99.90
19952;DHT22;10137;49.406;19.484;2022-11-20T15:28:16;2.20;99.90
19952;DHT22;10137;49.406;19.484;2022-11-20T15:30:50;2.20;99.90
19952;DHT22;10137;49.406;19.484;2022-11-20T15:33:17;2.20;99.90
19952;DHT22;10137;49.406;19.484;2022-11-20T15:35:44;2.20;99.90
19952;DHT22;10137;49.406;19.484;2022-11-20T15:38:12;2.20;99.90
19952;DHT22;10137;49.406;19.484;2022-11-20T15:40:42;2.20;99.90
19952;DHT22;10137;49.406;19.484;2022-11-20T15:43:10;2.20;99.90
19952;DHT22;10137;49.406;19.484;2022-11-20T15:45:43;2.20;99.90
19952;DHT22;10137;49.406;19.484;2022-11-20T15:48:17;2.20;99.90
19952;DHT22;10137;49.406;19.484;2022-11-20T15:50:56;2.20;99.90
19952;DHT22;10137;49.406;19.484;2022-11-20T15:53:27;2.20;99.90
19952;DHT22;10137;49.406;19.484;2022-11-20T15:55:55;2.10;99.90